Time;durP1;ratioP1;P1;durP2;ratioP2;P2;SDS_P1;SDS_P2;PMS_P1;PMS_P2;Temp;Humidity;BMP_temperature;BMP_pressure;BME280_temperature;BME280_humidity;BME280_pressure;Samples;Min_cycle;Max_cycle;Signal;HPM_P1;HPM_P2
2021/12/19 00:00:50;;;;;;;11.93;7.60;;;;;;;5.82;80.40;102195.34;5091762;28;20035;-52
2021/12/19 00:08:52;;;;;;;10.63;7.45;;;;;;;5.81;80.47;102194.47;5091776;28;20103;-51
2021/12/19 00:11:23;;;;;;;12.15;7.97;;;;;;;5.83;80.60;102198.00;5073952;28;20028;-50
2021/12/19 00:13:49;;;;;;;12.15;7.82;;;;;;;5.83;80.62;102187.53;5073566;28;20069;-54
2021/12/19 00:16:15;;;;;;;12.90;8.38;;;;;;;5.82;81.07;102196.25;5092331;28;20036;-51
2021/12/19 00:18:46;;;;;;;10.25;7.30;;;;;;;5.82;80.52;102183.16;5092180;28;20031;-51
2021/12/19 00:21:12;;;;;;;16.07;8.27;;;;;;;5.82;80.35;102179.63;5091545;28;20777;-54
2021/12/19 00:23:42;;;;;;;12.52;7.75;;;;;;;5.83;80.42;102186.66;5087637;28;20145;-53
2021/12/19 00:26:08;;;;;;;9.55;6.88;;;;;;;5.84;80.93;102188.44;5090724;28;20036;-54
2021/12/19 00:28:37;;;;;;;9.93;7.35;;;;;;;5.83;80.55;102179.69;5074104;28;20024;-54
2021/12/19 00:31:03;;;;;;;12.73;8.82;;;;;;;5.82;80.44;102183.16;5086354;28;20020;-54
2021/12/19 00:33:28;;;;;;;15.02;8.32;;;;;;;5.84;80.65;102181.47;5090847;28;20035;-54
2021/12/19 00:36:00;;;;;;;13.27;8.10;;;;;;;5.84;80.58;102170.13;5073840;28;20052;-54
2021/12/19 00:38:28;;;;;;;10.27;7.28;;;;;;;5.85;80.89;102169.28;5073566;28;20042;-53
2021/12/19 00:40:57;;;;;;;9.68;7.57;;;;;;;5.84;81.14;102163.13;5087038;28;20024;-52
2021/12/19 00:43:43;;;;;;;11.07;7.15;;;;;;;5.85;80.59;102153.56;5087990;28;20020;-52
2021/12/19 00:46:09;;;;;;;9.38;7.30;;;;;;;5.85;80.34;102161.41;5091517;28;20118;-52
2021/12/19 00:48:41;;;;;;;7.85;6.38;;;;;;;5.85;80.99;102158.78;5091408;28;20031;-53
2021/12/19 00:51:07;;;;;;;10.05;6.80;;;;;;;5.85;80.77;102156.19;5091045;28;20051;-52
2021/12/19 00:53:33;;;;;;;10.98;6.57;;;;;;;5.84;80.93;102155.28;5091313;28;20021;-52
2021/12/19 00:55:59;;;;;;;10.00;6.10;;;;;;;5.85;80.54;102153.56;5073578;28;20020;-52
2021/12/19 00:58:24;;;;;;;8.40;6.63;;;;;;;5.86;81.02;102157.94;5090767;28;20020;-52
2021/12/19 01:00:50;;;;;;;10.85;6.80;;;;;;;5.85;80.90;102154.47;5087642;28;20103;-52
2021/12/19 01:03:15;;;;;;;10.60;7.03;;;;;;;5.85;80.47;102156.19;5090277;28;20051;-53
2021/12/19 01:05:41;;;;;;;8.50;6.25;;;;;;;5.85;80.99;102149.22;5089626;28;20036;-52
2021/12/19 01:08:07;;;;;;;8.65;6.60;;;;;;;5.85;80.84;102145.69;5090404;28;20038;-52
2021/12/19 01:10:33;;;;;;;9.20;6.60;;;;;;;5.86;80.45;102144.84;5090596;28;20032;-52
2021/12/19 01:12:58;;;;;;;9.07;6.43;;;;;;;5.86;80.65;102147.47;5089690;28;20024;-52
2021/12/19 01:15:24;;;;;;;9.02;6.10;;;;;;;5.87;80.66;102144.03;5090072;28;20131;-52
2021/12/19 01:17:50;;;;;;;7.82;6.38;;;;;;;5.86;80.86;102140.53;5090168;28;20059;-52
2021/12/19 01:20:18;;;;;;;9.32;6.30;;;;;;;5.86;80.58;102140.53;5071349;28;20114;-52
2021/12/19 01:22:44;;;;;;;9.85;6.38;;;;;;;5.86;80.78;102129.13;5088392;28;20027;-52
2021/12/19 01:25:10;;;;;;;8.57;6.45;;;;;;;5.87;81.06;102136.19;5089096;28;20044;-52
2021/12/19 01:27:50;;;;;;;8.40;6.22;;;;;;;5.87;80.45;102130.94;5090871;28;20293;-52
2021/12/19 01:33:37;;;;;;;;;;;;;;;5.86;80.74;102126.53;5089924;28;20096;-52
2021/12/19 01:36:03;;;;;;;7.23;5.83;;;;;;;5.84;81.08;102126.47;5091173;28;19912;-52
2021/12/19 01:38:30;;;;;;;10.00;6.65;;;;;;;5.84;81.10;102123.84;5090217;28;20330;-52
2021/12/19 01:40:55;;;;;;;6.40;5.47;;;;;;;5.84;80.59;102115.13;5092161;28;20032;-52
2021/12/19 01:43:21;;;;;;;7.95;5.65;;;;;;;5.84;80.62;102112.50;5088225;28;20028;-52
2021/12/19 01:45:46;;;;;;;10.13;5.97;;;;;;;5.86;80.96;102102.97;5091986;28;20543;-53
2021/12/19 01:48:14;;;;;;;7.43;5.50;;;;;;;5.86;81.08;102102.97;5090507;28;20020;-52
2021/12/19 01:50:41;;;;;;;7.68;6.32;;;;;;;5.86;80.28;102108.19;5088648;28;20084;-53
2021/12/19 01:53:11;;;;;;;8.10;5.88;;;;;;;5.86;80.88;102103.84;5090193;28;20035;-54
2021/12/19 01:55:37;;;;;;;7.80;5.90;;;;;;;5.86;80.39;102109.09;5089800;28;20032;-54
2021/12/19 01:58:03;;;;;;;7.28;6.40;;;;;;;5.86;80.94;102102.97;5087291;28;20024;-54
2021/12/19 02:00:39;;;;;;;7.80;6.10;;;;;;;5.85;80.66;102099.47;5087122;28;20088;-54
2021/12/19 02:03:06;;;;;;;6.72;5.65;;;;;;;5.86;80.18;102090.75;5089301;28;20020;-54
2021/12/19 02:05:31;;;;;;;8.20;6.22;;;;;;;5.85;80.69;102094.22;5090029;28;20032;-53
2021/12/19 02:07:58;;;;;;;8.07;6.13;;;;;;;5.86;80.47;102092.47;5092239;28;20038;-54
2021/12/19 02:10:26;;;;;;;7.68;6.60;;;;;;;5.87;80.90;102089.03;5092493;28;20035;-55
2021/12/19 02:12:53;;;;;;;10.90;7.93;;;;;;;5.87;80.79;102081.19;5071372;28;20020;-53
2021/12/19 02:15:21;;;;;;;10.27;6.85;;;;;;;5.87;80.90;102070.72;5072093;28;20020;-54
2021/12/19 02:17:49;;;;;;;10.57;7.22;;;;;;;5.88;80.85;102067.25;5087367;28;20040;-53
2021/12/19 02:20:15;;;;;;;9.38;7.30;;;;;;;5.86;80.40;102063.69;5089711;28;20020;-54
2021/12/19 02:22:41;;;;;;;9.10;6.78;;;;;;;5.88;80.15;102062.00;5088924;28;20467;-54
2021/12/19 02:25:07;;;;;;;7.97;5.88;;;;;;;5.88;80.70;102069.88;5091582;28;20039;-53
2021/12/19 02:27:32;;;;;;;8.95;6.78;;;;;;;5.86;80.35;102059.34;5089962;28;20028;-53
2021/12/19 02:29:57;;;;;;;9.38;7.03;;;;;;;5.87;80.68;102058.50;5089364;28;20032;-52
2021/12/19 02:32:24;;;;;;;7.35;6.32;;;;;;;5.87;80.75;102047.16;5089687;28;20028;-52
2021/12/19 02:34:52;;;;;;;9.73;6.40;;;;;;;5.88;80.31;102048.91;5089925;28;20046;-52
2021/12/19 02:37:50;;;;;;;8.75;6.25;;;;;;;5.87;80.27;102036.69;5087771;28;20023;-52
2021/12/19 02:48:11;;;;;;;8.05;6.25;;;;;;;5.87;80.21;102031.44;5093812;28;20077;-52
2021/12/19 02:50:43;;;;;;;7.22;6.38;;;;;;;5.88;80.16;102039.34;5073872;28;20093;-53
2021/12/19 02:53:09;;;;;;;9.00;6.72;;;;;;;5.87;80.05;102021.84;5090967;28;20043;-52
2021/12/19 02:55:34;;;;;;;7.70;5.93;;;;;;;5.88;80.46;102023.63;5093098;28;20554;-52
2021/12/19 02:57:59;;;;;;;8.00;6.22;;;;;;;5.88;80.34;102018.41;5092562;28;20032;-52
2021/12/19 03:00:26;;;;;;;7.70;6.25;;;;;;;5.88;80.28;102010.53;5093819;28;20107;-52
2021/12/19 03:02:51;;;;;;;7.40;5.10;;;;;;;5.88;80.24;102001.78;5091770;28;20016;-52
2021/12/19 03:05:16;;;;;;;8.18;6.18;;;;;;;5.88;80.27;101996.56;5091530;28;20036;-52
2021/12/19 03:07:43;;;;;;;6.78;5.70;;;;;;;5.88;80.39;101996.56;5093311;28;20455;-52
2021/12/19 03:13:30;;;;;;;7.22;5.57;;;;;;;5.88;80.30;101988.69;5092377;28;20026;-53
2021/12/19 03:17:57;;;;;;;8.35;6.07;;;;;;;5.87;79.91;101990.41;5091955;28;20032;-52
2021/12/19 03:18:47;;;;;;;8.05;5.97;;;;;;;5.88;79.86;101996.56;5090788;28;20119;-53
2021/12/19 03:21:15;;;;;;;6.00;5.38;;;;;;;5.89;79.73;101987.84;5075093;28;20092;-52
2021/12/19 03:23:41;;;;;;;8.43;6.28;;;;;;;5.89;80.11;101977.38;5093156;28;20356;-53
2021/12/19 03:26:07;;;;;;;9.52;6.90;;;;;;;5.87;79.88;101968.59;5074939;28;20035;-53
2021/12/19 03:28:35;;;;;;;10.82;6.93;;;;;;;5.87;79.83;101964.22;5093537;28;20078;-52
2021/12/19 03:31:02;;;;;;;9.05;6.32;;;;;;;5.88;79.97;101965.13;5090914;28;20480;-53
2021/12/19 03:33:40;;;;;;;9.07;6.70;;;;;;;5.89;79.79;101973.03;5091155;28;20016;-52
2021/12/19 03:36:06;;;;;;;7.68;6.07;;;;;;;5.90;80.24;101973.91;5092347;28;20031;-52
2021/12/19 03:38:33;;;;;;;11.65;7.22;;;;;;;5.90;80.05;101973.91;5073636;28;20028;-52
2021/12/19 03:43:52;;;;;;;7.82;6.30;;;;;;;5.89;80.00;101951.19;5083512;28;20036;-53
2021/12/19 03:46:18;;;;;;;7.40;6.63;;;;;;;5.89;80.27;101945.94;5090001;28;20089;-53
2021/12/19 03:48:43;;;;;;;8.48;7.00;;;;;;;5.88;80.10;101938.94;5091809;28;20028;-52
2021/12/19 03:51:09;;;;;;;7.55;6.60;;;;;;;5.89;80.14;101940.72;5089771;28;20080;-52
2021/12/19 03:53:38;;;;;;;9.75;6.65;;;;;;;5.90;79.93;101939.84;5092881;28;20020;-52
2021/12/19 03:56:03;;;;;;;8.20;6.32;;;;;;;5.88;79.63;101931.97;5092831;28;20758;-52
2021/12/19 03:58:30;;;;;;;8.05;5.88;;;;;;;5.88;80.18;101931.97;5088721;28;20112;-52
2021/12/19 04:00:59;;;;;;;10.55;6.32;;;;;;;5.89;79.93;101923.28;5084405;28;20074;-53
2021/12/19 04:03:25;;;;;;;7.07;6.35;;;;;;;5.90;80.30;101913.66;5092834;28;20019;-52
2021/12/19 04:05:51;;;;;;;8.50;6.85;;;;;;;5.90;79.92;101911.06;5088461;28;20135;-52
2021/12/19 04:08:18;;;;;;;9.75;6.72;;;;;;;5.90;80.13;101930.28;5091602;28;20028;-52
2021/12/19 04:10:46;;;;;;;9.05;6.55;;;;;;;5.90;79.91;101934.63;5091712;28;20032;-52
2021/12/19 04:13:11;;;;;;;9.82;6.28;;;;;;;5.91;79.92;101928.56;5091649;28;20092;-52
2021/12/19 04:15:36;;;;;;;8.05;6.05;;;;;;;5.90;79.40;101939.84;5092487;28;20547;-55
2021/12/19 04:18:02;;;;;;;8.57;6.40;;;;;;;5.87;79.65;101939.78;5091965;28;20027;-52
2021/12/19 04:20:30;;;;;;;10.00;6.75;;;;;;;5.92;80.28;101953.91;5089133;28;20078;-52
2021/12/19 04:22:59;;;;;;;8.45;6.28;;;;;;;5.91;79.73;101947.75;5089059;28;20597;-52
2021/12/19 04:25:27;;;;;;;7.80;6.57;;;;;;;5.90;79.69;101930.28;5092145;28;20039;-52
2021/12/19 04:27:52;;;;;;;9.75;6.28;;;;;;;5.90;79.64;101918.91;5090275;28;20077;-52
2021/12/19 04:30:21;;;;;;;6.53;5.82;;;;;;;5.90;79.72;101916.28;5091714;28;20031;-53
2021/12/19 04:32:56;;;;;;;8.63;6.70;;;;;;;5.89;79.79;101915.41;5088613;28;20038;-53
2021/12/19 04:35:21;;;;;;;9.00;6.25;;;;;;;5.89;79.70;101914.53;5090670;28;20111;-52
2021/12/19 04:40:17;;;;;;;7.32;5.90;;;;;;;5.91;79.88;101921.56;5091775;28;20088;-52
2021/12/19 04:51:04;;;;;;;;;;;;;;;5.89;80.15;101910.19;5091247;28;20050;-52
2021/12/19 05:02:28;;;;;;;8.23;6.00;;;;;;;5.89;79.80;101907.56;5085643;28;20038;-52
2021/12/19 05:05:22;;;;;;;;;;;;;;;5.92;79.57;101898.91;5090098;28;20016;-52
2021/12/19 05:16:00;;;;;;;7.50;5.93;;;;;;;5.90;79.34;101885.75;5091484;28;20502;-52
2021/12/19 05:18:30;;;;;;;7.28;5.97;;;;;;;5.90;79.77;101871.78;5090999;28;20029;-52
2021/12/19 05:21:03;;;;;;;8.65;5.78;;;;;;;5.91;79.20;101876.19;5089866;28;20043;-52
2021/12/19 05:25:57;;;;;;;7.30;6.32;;;;;;;5.90;79.25;101874.38;5087017;28;20069;-52
2021/12/19 05:28:23;;;;;;;7.95;6.63;;;;;;;5.91;79.70;101878.81;5073110;28;20027;-52
2021/12/19 05:30:49;;;;;;;10.05;7.32;;;;;;;5.91;79.81;101860.47;5090994;28;20012;-53
2021/12/19 05:33:15;;;;;;;9.55;7.22;;;;;;;5.91;79.38;101865.72;5087940;28;20016;-53
2021/12/19 05:36:13;;;;;;;8.88;6.38;;;;;;;5.92;79.59;101864.88;5089745;28;20016;-52
2021/12/19 05:46:55;;;;;;;8.60;6.22;;;;;;;5.91;79.44;101860.47;5089503;28;20149;-53
2021/12/19 05:49:20;;;;;;;7.20;5.68;;;;;;;5.91;79.33;101870.94;5069142;28;20028;-52
2021/12/19 05:51:46;;;;;;;8.80;6.40;;;;;;;5.91;79.62;101865.72;5068622;28;20499;-52
2021/12/19 05:54:12;;;;;;;7.38;6.05;;;;;;;5.89;79.50;101857.81;5089652;28;20027;-52
2021/12/19 05:56:37;;;;;;;9.10;6.65;;;;;;;5.91;79.46;101855.25;5088798;28;20035;-52
2021/12/19 05:59:03;;;;;;;7.40;6.43;;;;;;;5.92;79.02;101862.25;5088600;28;20044;-52
2021/12/19 06:01:28;;;;;;;8.57;6.30;;;;;;;5.90;79.26;101869.16;5090514;28;20031;-52
2021/12/19 06:03:53;;;;;;;7.63;6.05;;;;;;;5.91;79.39;101865.72;5088189;28;20045;-52
2021/12/19 06:09:40;;;;;;;7.43;6.15;;;;;;;5.93;79.06;101881.47;5087117;28;20101;-52
2021/12/19 06:12:06;;;;;;;8.57;6.60;;;;;;;5.91;79.28;101881.44;5071703;28;20028;-52
2021/12/19 06:14:33;;;;;;;6.78;5.70;;;;;;;5.92;79.09;101893.66;5089408;28;20028;-53
2021/12/19 06:17:03;;;;;;;6.47;5.18;;;;;;;5.91;79.51;101889.28;5089271;28;20043;-52
2021/12/19 06:19:29;;;;;;;8.30;6.22;;;;;;;5.90;79.33;101883.16;5089622;28;20040;-52
2021/12/19 06:21:55;;;;;;;8.82;6.45;;;;;;;5.91;79.09;101874.44;5070839;28;20059;-52
2021/12/19 06:24:20;;;;;;;6.93;5.32;;;;;;;5.93;79.44;101889.34;5087900;28;20133;-52
2021/12/19 06:26:45;;;;;;;6.63;5.47;;;;;;;5.92;79.33;101891.06;5089643;28;20392;-52
2021/12/19 06:29:11;;;;;;;7.43;5.78;;;;;;;5.91;79.48;101892.78;5089878;28;20020;-53
2021/12/19 06:31:36;;;;;;;6.68;5.57;;;;;;;5.93;78.91;101884.97;5089734;28;20028;-52
2021/12/19 06:34:02;;;;;;;7.13;5.57;;;;;;;5.93;79.38;101890.19;5089257;28;20024;-53
2021/12/19 06:36:27;;;;;;;6.45;5.38;;;;;;;5.91;79.03;101884.03;5089421;28;20020;-52
2021/12/19 06:38:52;;;;;;;7.65;5.72;;;;;;;5.91;79.15;101873.56;5088887;28;20057;-52
2021/12/19 06:41:20;;;;;;;7.57;5.53;;;;;;;5.90;79.43;101877.91;5088916;28;21230;-52
2021/12/19 06:43:45;;;;;;;7.60;5.72;;;;;;;5.92;79.02;101872.72;5071684;28;20093;-52
2021/12/19 06:46:11;;;;;;;6.28;5.15;;;;;;;5.91;79.73;101878.81;5089666;28;20028;-52
2021/12/19 06:48:37;;;;;;;6.30;5.10;;;;;;;5.92;79.44;101872.72;5088672;28;20065;-53
2021/12/19 06:51:02;;;;;;;6.85;5.18;;;;;;;5.91;79.63;101852.63;5087987;28;20426;-53
2021/12/19 06:53:27;;;;;;;7.93;5.78;;;;;;;5.93;79.08;101853.53;5088158;28;20022;-53
2021/12/19 06:55:53;;;;;;;7.57;5.47;;;;;;;5.91;79.04;101845.63;5087512;28;20058;-52
2021/12/19 06:58:19;;;;;;;8.57;6.10;;;;;;;5.92;79.11;101846.53;5089415;28;20024;-53
2021/12/19 07:04:08;;;;;;;8.65;6.72;;;;;;;5.95;79.39;101840.50;5086800;28;20395;-53
2021/12/19 07:06:34;;;;;;;6.10;5.40;;;;;;;5.94;79.34;101836.09;5086346;28;20032;-52
2021/12/19 07:09:01;;;;;;;8.95;6.55;;;;;;;5.93;79.48;101845.69;5088556;28;20054;-52
2021/12/19 07:11:27;;;;;;;7.68;5.68;;;;;;;5.93;79.80;101845.69;5086885;28;20463;-52
2021/12/19 07:13:53;;;;;;;6.40;5.35;;;;;;;5.95;79.60;101841.38;5069629;28;20030;-52
2021/12/19 07:16:18;;;;;;;9.77;6.82;;;;;;;5.93;79.39;101842.19;5088317;28;20028;-52
2021/12/19 07:18:44;;;;;;;9.63;6.68;;;;;;;5.94;79.73;101838.72;5070115;28;20020;-52
2021/12/19 07:21:09;;;;;;;11.00;7.95;;;;;;;5.94;79.91;101834.38;5089226;28;20047;-52
2021/12/19 07:23:39;;;;;;;10.57;7.25;;;;;;;5.95;79.84;101833.53;5088244;28;20027;-52
2021/12/19 07:26:05;;;;;;;8.55;6.75;;;;;;;5.96;79.83;101837.03;5088775;28;20038;-52
2021/12/19 07:28:31;;;;;;;11.95;6.90;;;;;;;5.94;79.89;101823.00;5088744;28;20103;-52
2021/12/19 07:30:57;;;;;;;10.75;7.05;;;;;;;5.95;79.79;101823.06;5089681;28;20024;-52
2021/12/19 07:33:22;;;;;;;11.15;7.00;;;;;;;5.96;79.76;101822.22;5091557;28;20539;-52
2021/12/19 07:35:48;;;;;;;9.82;6.03;;;;;;;5.95;80.08;101815.19;5090173;28;20077;-52
2021/12/19 07:38:22;;;;;;;7.03;6.22;;;;;;;5.93;79.75;101819.50;5092607;28;20012;-53
2021/12/19 07:40:50;;;;;;;9.25;6.60;;;;;;;5.94;79.83;101820.41;5090560;28;20111;-52
2021/12/19 07:43:16;;;;;;;7.97;5.97;;;;;;;5.94;79.63;101808.19;5092341;28;20030;-52
2021/12/19 07:45:42;;;;;;;6.20;5.20;;;;;;;5.96;79.61;101809.13;5091402;28;20056;-52
2021/12/19 07:48:07;;;;;;;9.23;5.60;;;;;;;5.94;79.40;101802.97;5073975;28;20051;-52
2021/12/19 07:50:33;;;;;;;8.05;6.10;;;;;;;5.95;79.93;101798.59;5090980;28;20494;-52
2021/12/19 07:52:58;;;;;;;7.75;5.78;;;;;;;5.95;79.78;101804.72;5091908;28;20387;-52
2021/12/19 07:55:25;;;;;;;9.02;6.18;;;;;;;5.95;80.08;101794.25;5091600;28;20048;-52
2021/12/19 07:57:51;;;;;;;6.70;5.43;;;;;;;5.94;79.38;101804.69;5070524;28;20035;-53
2021/12/19 08:00:19;;;;;;;8.73;6.40;;;;;;;5.93;79.85;101798.53;5091962;28;20028;-53
2021/12/19 08:02:45;;;;;;;9.90;5.85;;;;;;;5.96;80.04;101796.03;5072229;28;20042;-52
2021/12/19 08:05:11;;;;;;;7.57;5.68;;;;;;;5.94;79.99;101792.50;5092003;28;20024;-53
2021/12/19 08:07:38;;;;;;;8.30;5.60;;;;;;;5.96;79.69;101790.78;5089155;28;20492;-52
2021/12/19 08:12:32;;;;;;;8.02;5.85;;;;;;;5.95;79.88;101796.88;5092285;28;20027;-52
2021/12/19 08:14:58;;;;;;;9.50;6.13;;;;;;;5.98;79.19;101778.63;5089942;28;20111;-52
2021/12/19 08:17:23;;;;;;;10.07;5.22;;;;;;;5.97;79.48;101784.69;5073529;28;20043;-52
2021/12/19 08:19:49;;;;;;;8.10;5.20;;;;;;;5.97;79.66;101782.06;5091540;28;20036;-52
2021/12/19 08:22:14;;;;;;;10.20;5.50;;;;;;;5.96;79.65;101785.53;5089607;28;20039;-52
2021/12/19 08:24:41;;;;;;;7.50;5.22;;;;;;;5.96;79.80;101785.53;5091976;28;20024;-52
2021/12/19 08:27:06;;;;;;;9.93;5.47;;;;;;;5.94;80.11;101774.16;5090813;28;20133;-52
2021/12/19 08:29:32;;;;;;;6.60;5.00;;;;;;;5.95;79.43;101783.78;5091770;28;20069;-52
2021/12/19 08:31:57;;;;;;;8.80;6.03;;;;;;;5.96;79.46;101776.78;5091682;28;20040;-52
2021/12/19 08:34:22;;;;;;;8.05;5.15;;;;;;;5.96;79.57;101771.53;5090269;28;20035;-52
2021/12/19 08:36:47;;;;;;;16.70;10.88;;;;;;;5.99;79.75;101769.03;5091412;28;20499;-52
2021/12/19 08:39:14;;;;;;;12.38;8.10;;;;;;;5.97;79.66;101773.34;5092022;28;20105;-52
2021/12/19 08:41:40;;;;;;;12.73;8.30;;;;;;;5.99;79.83;101774.25;5094809;28;20149;-52
2021/12/19 08:44:05;;;;;;;12.00;7.90;;;;;;;5.97;79.69;101770.72;5071116;28;20480;-52
2021/12/19 08:46:35;;;;;;;12.00;8.20;;;;;;;5.96;79.48;101780.31;5090277;28;20020;-52
2021/12/19 08:49:03;;;;;;;12.15;7.85;;;;;;;5.95;79.66;101765.44;5088127;28;20016;-52
2021/12/19 08:51:29;;;;;;;9.80;6.72;;;;;;;5.96;79.91;101764.59;5088317;28;20032;-52
2021/12/19 08:53:54;;;;;;;9.57;6.75;;;;;;;5.95;79.72;101770.69;5090092;28;20391;-52
2021/12/19 08:56:19;;;;;;;9.18;6.45;;;;;;;5.95;80.04;101762.81;5091595;28;20101;-52
2021/12/19 08:58:44;;;;;;;10.45;7.20;;;;;;;5.96;79.72;101759.34;5090131;28;20165;-52
2021/12/19 09:01:10;;;;;;;7.88;5.95;;;;;;;5.97;79.76;101766.34;5092720;28;20082;-54
2021/12/19 09:03:35;;;;;;;8.23;6.22;;;;;;;5.97;79.71;101761.13;5089962;28;20106;-52
2021/12/19 09:06:01;;;;;;;10.00;6.68;;;;;;;5.97;79.39;101758.50;5091393;28;20039;-54
2021/12/19 09:08:27;;;;;;;8.90;6.60;;;;;;;5.97;80.01;101771.59;5071787;28;20436;-54
2021/12/19 09:10:53;;;;;;;8.95;6.47;;;;;;;5.97;80.09;101768.09;5089664;28;20120;-54
2021/12/19 09:13:18;;;;;;;11.55;7.45;;;;;;;5.98;79.57;101762.03;5087704;28;20472;-54
2021/12/19 09:15:44;;;;;;;7.93;5.97;;;;;;;5.98;80.01;101762.91;5088620;28;20038;-53
2021/12/19 09:18:09;;;;;;;7.60;6.47;;;;;;;5.98;79.91;101755.06;5092234;28;20035;-52
2021/12/19 09:20:34;;;;;;;8.40;6.65;;;;;;;5.99;79.71;101753.31;5092775;28;20038;-53
2021/12/19 09:23:00;;;;;;;10.45;6.82;;;;;;;6.00;79.61;101758.59;5090892;28;20103;-54
2021/12/19 09:25:26;;;;;;;9.48;6.57;;;;;;;5.98;79.62;101755.06;5091727;28;20035;-53
2021/12/19 09:27:51;;;;;;;8.70;6.63;;;;;;;5.97;79.55;101753.25;5091128;28;20437;-53
2021/12/19 09:30:17;;;;;;;11.35;7.57;;;;;;;5.95;79.84;101744.50;5074214;28;20024;-51
2021/12/19 09:32:42;;;;;;;10.10;6.78;;;;;;;5.97;79.38;101741.91;5090881;28;20056;-53
2021/12/19 09:35:08;;;;;;;11.10;6.75;;;;;;;5.97;79.44;101739.31;5091052;28;20035;-54
2021/12/19 09:37:35;;;;;;;9.55;6.97;;;;;;;5.98;79.81;101731.50;5091523;28;20093;-54
2021/12/19 09:40:09;;;;;;;10.55;6.00;;;;;;;5.97;79.46;101729.69;5090543;28;20088;-53
2021/12/19 09:42:36;;;;;;;10.20;7.30;;;;;;;5.97;80.05;101719.22;5088197;28;20361;-54
2021/12/19 09:45:03;;;;;;;10.77;7.47;;;;;;;5.97;80.16;101726.22;5088898;28;20423;-54
2021/12/19 09:47:29;;;;;;;8.90;6.22;;;;;;;5.97;79.67;101716.59;5088927;28;20031;-54
2021/12/19 09:49:54;;;;;;;12.57;6.55;;;;;;;5.99;79.54;101714.03;5073067;28;20415;-53
2021/12/19 09:52:20;;;;;;;9.88;6.70;;;;;;;5.97;79.83;101721.84;5070414;28;20454;-53
2021/12/19 09:54:45;;;;;;;8.82;6.78;;;;;;;5.97;79.58;101703.50;5089623;28;20429;-54
2021/12/19 09:57:10;;;;;;;9.40;6.78;;;;;;;5.97;80.00;101713.13;5072228;28;20032;-54
2021/12/19 09:59:36;;;;;;;8.90;6.50;;;;;;;5.96;80.11;101712.22;5089518;28;20024;-53
2021/12/19 10:02:03;;;;;;;10.38;6.63;;;;;;;5.97;79.85;101707.88;5088638;28;20103;-54
2021/12/19 10:04:37;;;;;;;10.55;7.93;;;;;;;5.97;79.63;101702.63;5088868;28;20024;-53
2021/12/19 10:07:14;;;;;;;12.50;7.70;;;;;;;5.96;79.88;101706.97;5087350;28;20036;-54
2021/12/19 10:10:11;;;;;;;14.35;8.30;;;;;;;5.97;79.92;101710.50;5087848;28;20020;-54
2021/12/19 10:12:51;;;;;;;10.55;7.43;;;;;;;5.96;79.39;101693.88;5081481;28;20036;-54
2021/12/19 10:15:26;;;;;;;9.77;7.22;;;;;;;5.96;79.66;101683.41;5086963;28;20020;-54
2021/12/19 10:18:17;;;;;;;10.77;7.32;;;;;;;5.96;79.69;101680.78;5071082;28;20154;-53
2021/12/19 10:20:45;;;;;;;11.57;7.97;;;;;;;5.96;79.93;101680.78;5085420;28;20384;-54
2021/12/19 10:23:13;;;;;;;10.38;6.30;;;;;;;5.96;79.88;101670.31;5088813;28;20028;-54
2021/12/19 10:25:39;;;;;;;8.50;6.35;;;;;;;5.97;79.79;101665.97;5089302;28;20100;-54
2021/12/19 10:28:08;;;;;;;11.30;6.75;;;;;;;5.96;79.90;101662.47;5087128;28;20472;-53
2021/12/19 10:30:39;;;;;;;9.20;6.28;;;;;;;5.97;79.91;101661.59;5092320;28;20027;-54
2021/12/19 10:33:04;;;;;;;9.15;6.03;;;;;;;5.97;79.75;101664.22;5089310;28;20020;-53
2021/12/19 10:35:33;;;;;;;9.63;5.82;;;;;;;5.97;80.06;101653.75;5088605;28;20023;-54
2021/12/19 10:38:00;;;;;;;10.43;6.40;;;;;;;5.96;80.26;101646.75;5088692;28;20111;-53
2021/12/19 10:40:26;;;;;;;8.50;6.47;;;;;;;5.98;80.03;101634.59;5069852;28;20111;-53
2021/12/19 10:42:59;;;;;;;7.32;5.60;;;;;;;5.98;80.00;101647.69;5071217;28;20027;-54
2021/12/19 10:45:44;;;;;;;10.07;6.82;;;;;;;5.96;79.70;101641.50;5089906;28;20106;-53
2021/12/19 10:48:20;;;;;;;8.35;5.60;;;;;;;5.97;80.09;101630.19;5086871;28;20028;-54
2021/12/19 10:51:04;;;;;;;9.55;6.07;;;;;;;5.98;80.11;101621.50;5087170;28;20545;-53
2021/12/19 10:53:41;;;;;;;7.22;5.32;;;;;;;5.97;80.13;101619.72;5086381;28;20040;-54
2021/12/19 10:56:21;;;;;;;8.13;5.40;;;;;;;5.97;80.05;101611.84;5088924;28;20032;-54
2021/12/19 10:58:51;;;;;;;7.75;5.40;;;;;;;5.98;79.73;101605.78;5069452;28;20121;-54
2021/12/19 11:01:21;;;;;;;8.40;5.40;;;;;;;5.98;79.80;101605.78;5071325;28;20035;-54
2021/12/19 11:03:51;;;;;;;5.70;4.30;;;;;;;5.97;79.79;101598.75;5086562;28;20054;-53
2021/12/19 11:06:46;;;;;;;7.38;5.25;;;;;;;5.98;79.92;101597.94;5069674;28;20035;-54
2021/12/19 11:09:19;;;;;;;5.80;4.35;;;;;;;5.98;79.74;101597.94;5088888;28;20032;-54
2021/12/19 11:11:56;;;;;;;5.00;4.07;;;;;;;5.99;80.15;101589.22;5091289;28;20103;-54
2021/12/19 11:14:31;;;;;;;7.03;4.45;;;;;;;5.99;80.04;101594.47;5091738;28;20583;-54
2021/12/19 11:17:00;;;;;;;8.77;4.15;;;;;;;5.98;80.01;101587.47;5093356;28;20399;-54
2021/12/19 11:19:26;;;;;;;4.78;3.67;;;;;;;5.99;79.64;101585.69;5094771;28;20060;-54
2021/12/19 11:21:52;;;;;;;5.75;4.05;;;;;;;5.99;80.19;101585.69;5091457;28;20153;-53
2021/12/19 11:24:19;;;;;;;5.07;3.65;;;;;;;5.98;80.11;101584.84;5093309;28;20115;-53
2021/12/19 11:26:47;;;;;;;5.35;3.70;;;;;;;5.99;80.33;101578.75;5090896;28;20073;-53
2021/12/19 11:29:14;;;;;;;5.57;3.38;;;;;;;6.00;80.25;101577.03;5092080;28;20119;-53
2021/12/19 11:31:42;;;;;;;4.72;3.40;;;;;;;6.00;80.46;101571.78;5089569;28;20027;-54
2021/12/19 11:34:16;;;;;;;5.32;3.78;;;;;;;5.99;79.95;101564.75;5075128;28;20032;-54
2021/12/19 11:36:47;;;;;;;4.13;3.30;;;;;;;5.99;80.14;101555.16;5092524;28;21479;-53
2021/12/19 11:39:13;;;;;;;5.28;3.65;;;;;;;6.00;80.03;101562.16;5072213;28;20024;-54
2021/12/19 11:41:39;;;;;;;4.13;3.45;;;;;;;6.01;80.31;101558.69;5070445;28;20032;-54
2021/12/19 11:44:07;;;;;;;4.32;3.28;;;;;;;6.01;80.12;101544.75;5091474;28;20069;-54
2021/12/19 11:46:52;;;;;;;4.05;3.42;;;;;;;6.00;79.84;101541.22;5092319;28;20031;-52
2021/12/19 11:49:22;;;;;;;3.50;2.92;;;;;;;6.00;80.48;101535.97;5071195;28;20044;-54
2021/12/19 11:51:47;;;;;;;3.80;3.13;;;;;;;6.00;79.84;101525.50;5089521;28;20031;-53
2021/12/19 11:54:16;;;;;;;4.68;3.40;;;;;;;6.00;79.76;101532.50;5074177;28;20043;-51
2021/12/19 11:57:09;;;;;;;4.03;3.10;;;;;;;6.00;79.90;101535.97;5090677;28;20024;-52
2021/12/19 11:59:35;;;;;;;4.85;3.28;;;;;;;6.00;79.95;101535.97;5072621;28;20032;-53
2021/12/19 12:02:22;;;;;;;4.22;2.90;;;;;;;6.02;80.05;101533.41;5089728;28;20480;-54
2021/12/19 12:05:12;;;;;;;3.00;2.70;;;;;;;6.01;80.07;101529.88;5090925;28;20060;-55
2021/12/19 12:08:15;;;;;;;3.78;2.85;;;;;;;6.01;80.33;101515.94;5091565;28;20071;-55
2021/12/19 12:10:54;;;;;;;3.25;2.20;;;;;;;6.00;79.94;101507.19;5090085;28;20016;-53
2021/12/19 12:13:29;;;;;;;3.78;2.50;;;;;;;6.00;80.34;101501.94;5088988;28;20028;-54
2021/12/19 12:16:09;;;;;;;3.40;2.80;;;;;;;6.01;80.32;101505.47;5089520;28;20028;-53
2021/12/19 12:18:36;;;;;;;3.17;2.08;;;;;;;6.01;80.11;101522.03;5089728;28;20020;-54
2021/12/19 12:21:29;;;;;;;3.17;2.38;;;;;;;6.01;79.96;101508.06;5068392;28;20032;-53
2021/12/19 12:24:12;;;;;;;2.75;2.00;;;;;;;6.02;79.94;101513.34;5085762;28;20024;-54
2021/12/19 12:26:49;;;;;;;1.92;1.77;;;;;;;6.01;80.32;101511.56;5086876;28;20031;-54
2021/12/19 12:29:15;;;;;;;3.80;2.15;;;;;;;6.01;79.95;101527.28;5070677;28;20028;-54
2021/12/19 12:31:43;;;;;;;2.03;1.92;;;;;;;6.03;80.57;101514.22;5069455;28;20023;-54
2021/12/19 12:34:11;;;;;;;3.53;2.22;;;;;;;6.02;80.24;101526.44;5069079;28;20077;-54
2021/12/19 12:36:37;;;;;;;2.40;2.10;;;;;;;6.03;80.48;101525.63;5089606;28;20027;-54
2021/12/19 12:39:07;;;;;;;3.15;1.98;;;;;;;6.05;80.13;101535.25;5088339;28;20443;-54
2021/12/19 12:44:11;;;;;;;2.72;2.03;;;;;;;6.03;80.10;101529.94;5079574;28;20530;-53
2021/12/19 12:46:36;;;;;;;2.42;1.90;;;;;;;6.05;80.30;101522.16;5091743;28;20492;-54
2021/12/19 12:49:10;;;;;;;2.13;1.88;;;;;;;6.03;80.45;101508.97;5089491;28;20062;-54
2021/12/19 12:51:41;;;;;;;4.00;2.97;;;;;;;6.02;80.57;101508.13;5092912;28;20027;-53